White Mountain Summit Weather observations

Data are for 10 minute period ending at time listed.
 Day   Time   Solar   Ave.   Ave.  Ave.  Vector    Max.    Baro.  
  of    of     Rad.   Air    Rel.  Wind   Wind     Wind   Press.  
Year   Day            Temp.  Hum.  Speed  Dir.     Gust           
2015   (PST)   W/m2    F      %     mph   deg.      mph     mb.   
-------------------------------------------------------------------
 247    2:00  17970.0    28   52.2    30    251.6    40.0   598.2 
 247    2:10  16980.0    28   52.2    29    244.0    37.7   598.2 
 247    2:20  17510.0    28   51.4    30    253.2    40.0   598.1 
 247    2:30  17890.0    28   50.5    30    254.2    42.4   598.0 
 247    2:40  15430.0    28   50.7    32    258.4    44.7   597.9 
 247    2:50  15010.0    27   51.5    32    247.4    44.7   597.8 
 247    3:00  14670.0    27   51.5    33    257.5    42.4   597.7 
 247    3:10  14300.0    27   52.0    32    252.9    42.4   597.7 
 247    3:20  14630.0    27   50.3    36    263.6    47.1   597.6 
 247    3:30  15110.0    26   49.5    35    266.4    42.4   597.6 
 247    3:40  14170.0    26   49.1    35    249.5    42.4   597.4 
 247    3:50  13830.0    26   46.9    39    265.2    47.1   597.2 
 247    4:00  13610.0    26   44.4    40    256.3    51.8   597.2 
 247    4:10  13730.0    26   40.5    44    260.7    54.1   597.1 
 247    4:20  14350.0    26   40.2    43    267.7    51.8   597.1 
 247    4:30  14730.0    26   43.5    40    260.3    49.4   597.1 
 247    4:40  14770.0    26   44.9    38    269.2    44.7   597.2 
 247    4:50  15160.0    26   44.2    38    266.9    44.7   597.2 
 247    5:00  14210.0    26   44.2    41    267.4    47.1   597.1 
 247    5:10  14510.0    26   42.8    43    267.0    49.4   597.1 
 247    5:20  14850.0    26   44.2    42    263.8    49.4   597.1 
 247    5:30  7904.0    26   45.4    42    268.8    49.4   597.1 
 247    5:40    1.0    26   46.9    43    260.2    51.8   597.1 
 247    5:50  502.0    25   46.9    42    261.4    47.1   597.1 
 247    6:00  5487.0    26   46.3    44    267.4    49.4   597.1 
 247    6:10  10830.0    26   46.2    42    265.3    49.4   597.1 
 247    6:20  10730.0    26   46.4    42    263.9    44.7   597.2 
 247    6:30  10730.0    26   48.0    44    269.4    49.4   597.2 
 247    6:40  11680.0    26   49.1    41    267.8    44.7   597.3 
 247    6:50  9810.0    26   49.8    39    265.4    44.7   597.5 
 247    7:00  6142.0    26   49.9    38    256.1    40.0   597.5 
 247    7:10    3.0    26   46.0    39    254.5    42.4   597.5 
 247    7:20    1.0    26   45.0    34    257.4    37.7   597.7 
 247    7:30    1.0    26   46.1    34    258.3    37.7   597.7 
 247    7:40    2.0    26   46.6    34    264.6    40.0   597.7 
 247    7:50    2.0    27   47.2    36    261.9    40.0   597.7 
 247    8:00    3.0    27   47.9    38    264.9    44.7   597.6 
 247    8:10    1.0    27   49.4    38    264.1    44.7   597.6 
 247    8:20    0.0    27   50.2    39    264.2    49.4   597.6 
 247    8:30    0.0    28   50.3    37    265.0    47.1   597.7 
 247    8:40  833.0    28   50.6    39    263.9    51.8   597.7 
 247    8:50  2734.0    28   51.0    42    266.5    51.8   597.7 
 247    9:00  126.0    28   50.4    39    266.7    44.7   597.8 
 247    9:10    0.0    29   50.0    38    263.8    47.1   597.8 
 247    9:20  1745.0    29   49.7    35    267.1    44.7   598.0 
 247    9:30  17350.0    30   49.1    32    268.2    42.4   598.1 
 247    9:40  20950.0    30   47.4    33    267.8    44.7   598.2 
 247    9:50  21630.0    31   46.5    32    267.0    42.4   598.3 
 247   10:00  18240.0    32   45.2    33    267.3    42.4   598.2 
 247   10:10  10220.0    32   45.1    31    266.7    40.0   598.3 
 247   10:20  7117.0    32   43.8    32    269.5    42.4   598.3 
 247   10:30  5554.0    32   42.9    32    267.0    44.7   598.3 
 247   10:40  9140.0    33   42.4    31    270.7    37.7   598.3 
 247   10:50  10290.0    33   41.4    34    268.9    44.7   598.3 
 247   11:00  15500.0    34   40.5    32    267.5    40.0   598.4 
 247   11:10  16090.0    34   39.2    33    263.1    42.4   598.4 
 247   11:20  15960.0    35   37.3    34    265.3    49.4   598.3 
 247   11:30  19330.0    34   35.5    35    265.3    47.1   598.3 
 247   11:40  20520.0    35   34.0    34    264.9    42.4   598.3 
 247   11:50  22820.0    36   33.0    34    265.6    49.4   598.3 
 247   12:00  23580.0    36   34.2    34    268.6    49.4   598.4 
 247   12:10  22750.0    37   33.0    34    265.9    42.4   598.4 
 247   12:20  22490.0    36   32.5    35    265.5    47.1   598.3 
 247   12:30  21510.0    37   32.7    38    266.0    51.8   598.3 
 247   12:40  24150.0    38   31.7    37    266.2    51.8   598.4 
 247   12:50  22930.0    38   33.0    40    265.8    51.8   598.3 
 247   13:00  21720.0    38   31.2    41    268.8    51.8   598.3 
 247   13:10  20220.0    39   29.5    38    267.5    49.4   598.4 
 247   13:20  20260.0    39   29.0    42    269.3    49.4   598.3 
 247   13:30  18010.0    39   29.5    45    267.2    58.8   598.2 
 247   13:40  19550.0    39   29.6    49    267.5    61.2   598.0 
 247   13:50  17320.0    39   29.8    49    268.1    61.2   598.0 
 247   14:00  16660.0    38   30.0    50    267.2    63.5   598.0 
 247   14:10  18330.0    39   30.6    50    266.1    63.5   598.0 
 247   14:20  16220.0    40   29.5    51    267.3    63.5   597.9 
 247   14:30  15110.0    40   29.6    53    265.8    70.6   597.9 
 247   14:40  15830.0    40   28.7    53    266.1    68.2   597.9 
 247   14:50  17560.0    40   28.6    53    268.2    68.2   597.9 
 247   15:00  17050.0    39   28.8    55    268.4    72.9   597.9 
 247   15:10  21540.0    39   29.3    49    266.9    61.2   598.1 
 247   15:20  23940.0    40   28.0    43    267.8    56.5   598.3 
 247   15:30  24360.0    39   28.6    38    269.0    49.4   598.5 
 247   15:40  23600.0    40   27.3    36    269.9    54.1   598.7 
 247   15:50  24900.0    40   27.8    45    266.9    65.9   598.5 
 247   16:00  22790.0    39   29.7    44    267.4    56.5   598.4 
 247   16:10  24010.0    40   30.4    44    265.7    61.2   598.4 
 247   16:20  23460.0    40   30.0    46    265.5    56.5   598.3 
 247   16:30  22640.0    40   30.6    48    266.4    63.5   598.3 
 247   16:40  20670.0    39   30.8    49    266.8    61.2   598.2 
 247   16:50  9440.0    38   31.8    47    267.5    61.2   598.2 
 247   17:00  306.0    39   31.2    46    266.7    56.5   598.3 
 247   17:10  336.0    38   33.4    40    264.3    51.8   598.5 
 247   17:20  293.0    38   37.2    40    264.3    49.4   598.6 
 247   17:30    0.0    38   38.9    42    264.6    49.4   598.5 
 247   17:40    0.0    37   44.9    45    265.9    56.5   598.4 
 247   17:50    0.0    35   50.8    48    265.0    58.8   598.2 
 247   18:00    0.0    33   53.1    44    266.6    51.8   598.2 
 247   18:10    0.0    33   51.5    39    265.3    47.1   598.1 
 247   18:20    0.0    33   51.5    33    265.2    44.7   598.3 
 247   18:30    0.0    33   52.7    27    267.0    40.0   598.4 
 247   18:40    0.0    31   55.6    28    266.7    33.0   598.3 
 247   18:50    0.0    32   54.2    32    264.4    35.3   598.2 
 247   19:00    0.0    31   54.4    32    266.3    37.7   598.1 
 247   19:10    0.0    30   54.0    32    267.3    37.7   598.2 
 247   19:20    0.0    30   52.2    32    266.9    37.7   598.3 
 247   19:30    0.0    30   52.2    31    267.2    37.7   598.4 
 247   19:40    0.0    29   50.5    28    264.6    33.0   598.5 
 247   19:50    0.0    29   40.5    36    259.0    42.4   598.5 
 247   20:00    0.0    29   29.0    39    259.4    44.7   598.5 
 247   20:10    1.0    29   27.4    39    257.1    44.7   598.4 
 247   20:20    0.0    29   30.9    35    260.2    42.4   598.5 
 247   20:30    0.0    29   28.9    37    261.9    44.7   598.5 
 247   20:40    0.0    29   29.3    37    263.4    42.4   598.6 
 247   20:50    0.0    28   30.7    34    265.1    42.4   598.6 
 247   21:00    0.0    28   26.8    38    263.1    44.7   598.5 
 247   21:10    0.0    28   25.0    36    259.2    42.4   598.6 
 247   21:20    0.0    28   23.5    35    263.9    44.7   598.6 
 247   21:30    1.0    28   20.0    39    261.0    44.7   598.5 
 247   21:40    1.0    28   20.4    36    259.1    40.0   598.5 
 247   21:50    0.0    28   20.9    36    255.5    40.0   598.5 
 247   22:00    0.0    27   21.3    32    255.2    37.7   598.6 
 247   22:10    0.0    28   20.9    28    260.1    33.0   598.6 
 247   22:20    0.0    28   25.4    26    254.2    30.6   598.7 
 247   22:30    0.0    27   25.6    26    258.5    30.6   598.7 
 247   22:40    0.0    27   28.7    30    264.8    35.3   598.6 
 247   22:50    0.0    27   25.8    30    265.7    33.0   598.6 
 247   23:00    1.0    27   27.0    28    253.2    30.6   598.7 
 247   23:10    0.0    27   28.5    29    252.2    33.0   598.7 
 247   23:20    0.0    27   29.8    29    252.0    33.0   598.6 
 247   23:30    0.0    27   26.5    29    251.9    35.3   598.7 
 247   23:40    0.0    27   25.0    29    255.4    33.0   598.7 
 247   23:50    0.0    27   19.4    31    253.4    37.7   598.6 
 248    0:00    0.0    27   13.7    35    250.7    40.0   598.5 
 248    0:10    0.0    28   12.8    32    257.4    37.7   598.5 
 248    0:20    0.0    28   13.0    33    264.7    37.7   598.4 
 248    0:30    0.0    28   13.4    36    267.1    49.4   598.3 
 248    0:40    0.0    27   12.9    38    267.4    49.4   598.2 
 248    0:50    0.0    28   12.3    43    269.3    51.8   598.0 
 248    1:00    0.0    28   12.7    48    270.9    54.1   598.0 
 248    1:10    0.0    28   12.9    46    270.2    56.5   598.0 
 248    1:20    0.0    28   13.0    45    270.2    51.8   598.0 
 248    1:30    0.0    28   13.4    54    270.7    61.2   597.8 
 248    1:40    0.0    28   13.4    52    269.3    61.2   597.9 
 248    1:50    0.0    28   13.5    51    268.3    54.1   597.9 

Return to White Mountain graphs page.


Western Regional Climate Center,wrcc@dri.edu